Time;durP1;ratioP1;P1;durP2;ratioP2;P2;SDS_P1;SDS_P2;PMS_P1;PMS_P2;Temp;Humidity;BMP_temperature;BMP_pressure;BME280_temperature;BME280_humidity;BME280_pressure;Samples;Min_cycle;Max_cycle;Signal;HPM_P1;HPM_P2
2022/12/02 00:02:31;;;;;;;48.72;19.95;;;5.30;99.90;;;;;;6088111;23;93326;-72
2022/12/02 00:05:17;;;;;;;50.97;21.98;;;5.30;99.90;;;;;;6064732;23;93206;-72
2022/12/02 00:07:44;;;;;;;48.75;20.52;;;5.30;99.90;;;;;;6064572;23;93087;-71
2022/12/02 00:10:27;;;;;;;35.05;16.33;;;5.20;99.90;;;;;;6064996;23;92822;-72
2022/12/02 00:12:55;;;;;;;47.67;21.70;;;5.30;99.90;;;;;;6088381;23;91693;-72
2022/12/02 00:15:36;;;;;;;44.03;20.85;;;5.10;99.90;;;;;;6061932;23;114561;-72
2022/12/02 00:18:03;;;;;;;51.65;22.15;;;5.20;99.90;;;;;;6064779;23;92895;-72
2022/12/02 00:20:30;;;;;;;44.08;20.00;;;5.20;99.90;;;;;;6061736;23;94845;-72
2022/12/02 00:22:57;;;;;;;46.47;20.52;;;5.20;99.90;;;;;;6087614;23;92469;-72
2022/12/02 00:25:24;;;;;;;38.95;18.55;;;5.20;99.90;;;;;;6064457;23;93172;-71
2022/12/02 00:27:50;;;;;;;37.70;19.35;;;5.20;99.90;;;;;;6064248;23;92955;-72
2022/12/02 00:30:17;;;;;;;33.50;15.85;;;5.20;99.90;;;;;;6066352;23;92952;-71
2022/12/02 00:32:44;;;;;;;40.53;18.48;;;5.20;99.90;;;;;;6040162;23;92502;-72
2022/12/02 00:35:11;;;;;;;40.42;18.65;;;5.10;99.90;;;;;;6066015;23;93232;-72
2022/12/02 00:37:38;;;;;;;37.83;17.45;;;5.10;99.90;;;;;;6089052;23;94204;-72
2022/12/02 00:40:06;;;;;;;38.42;18.50;;;5.10;99.90;;;;;;6088702;23;92428;-72
2022/12/02 00:42:33;;;;;;;36.42;17.85;;;5.20;99.90;;;;;;6064043;23;92545;-72
2022/12/02 00:47:45;;;;;;;43.28;18.10;;;5.20;99.90;;;;;;6065662;23;95270;-71
2022/12/02 00:50:12;;;;;;;42.28;18.70;;;5.10;99.90;;;;;;6064603;23;92428;-72
2022/12/02 00:52:39;;;;;;;45.08;20.17;;;5.10;99.90;;;;;;6066142;23;92726;-72
2022/12/02 00:55:07;;;;;;;42.30;17.77;;;5.20;99.90;;;;;;6088636;23;96279;-72
2022/12/02 00:57:34;;;;;;;46.15;19.80;;;5.20;99.90;;;;;;6088550;23;94530;-72
2022/12/02 01:00:01;;;;;;;38.28;17.17;;;5.10;99.90;;;;;;6088816;23;92397;-72
2022/12/02 01:02:28;;;;;;;46.80;19.15;;;5.10;99.90;;;;;;6064999;23;91618;-72
2022/12/02 01:04:56;;;;;;;46.97;19.65;;;5.10;99.90;;;;;;6039758;23;95416;-72
2022/12/02 01:07:22;;;;;;;41.00;18.60;;;5.00;99.90;;;;;;6064201;23;95471;-72
2022/12/02 01:09:49;;;;;;;35.88;16.75;;;5.00;99.90;;;;;;6087038;23;95542;-72
2022/12/02 01:12:16;;;;;;;33.50;16.85;;;4.90;99.90;;;;;;6088809;23;92487;-72
2022/12/02 01:14:45;;;;;;;30.88;14.40;;;5.00;99.90;;;;;;6088259;23;95735;-72
2022/12/02 01:17:12;;;;;;;28.15;13.43;;;4.90;99.90;;;;;;6088825;23;94327;-72
2022/12/02 01:19:39;;;;;;;22.95;11.73;;;4.90;99.90;;;;;;6063925;23;92535;-71
2022/12/02 01:22:06;;;;;;;25.25;13.07;;;4.90;99.90;;;;;;6064476;23;92369;-71
2022/12/02 01:24:33;;;;;;;27.30;12.77;;;4.80;99.90;;;;;;6065765;23;93102;-71
2022/12/02 01:27:00;;;;;;;24.40;12.63;;;4.80;99.90;;;;;;6064403;23;92438;-71
2022/12/02 01:29:27;;;;;;;25.70;13.20;;;4.80;99.90;;;;;;6064231;23;92442;-71
2022/12/02 01:31:54;;;;;;;24.77;14.07;;;4.80;99.90;;;;;;6088775;23;93062;-71
2022/12/02 01:34:21;;;;;;;27.00;13.93;;;4.80;99.90;;;;;;6062582;23;98357;-72
2022/12/02 01:36:48;;;;;;;29.88;14.38;;;4.70;99.90;;;;;;6088331;23;98039;-71
2022/12/02 01:39:15;;;;;;;26.42;14.95;;;4.80;99.90;;;;;;6064095;23;92796;-71
2022/12/02 01:46:32;;;;;;;27.25;13.65;;;4.80;99.90;;;;;;6065286;23;92615;-71
2022/12/02 01:48:59;;;;;;;23.63;13.57;;;4.60;99.90;;;;;;6088280;23;94576;-71
2022/12/02 01:51:27;;;;;;;26.15;12.65;;;4.60;99.90;;;;;;6088817;23;92908;-71
2022/12/02 01:53:54;;;;;;;25.83;14.65;;;4.70;99.90;;;;;;6066108;23;91665;-71
2022/12/02 01:56:21;;;;;;;31.35;14.73;;;4.70;99.90;;;;;;6064063;23;95842;-71
2022/12/02 01:58:48;;;;;;;30.45;15.52;;;4.70;99.90;;;;;;6088214;23;95191;-71
2022/12/02 02:01:26;;;;;;;24.23;14.25;;;4.70;99.90;;;;;;6062863;23;94782;-72
2022/12/02 02:03:54;;;;;;;24.98;13.68;;;4.70;99.90;;;;;;6065698;23;92434;-71
2022/12/02 02:06:22;;;;;;;26.05;13.52;;;4.70;99.90;;;;;;6063974;23;95800;-71
2022/12/02 02:08:50;;;;;;;25.75;13.52;;;4.70;99.90;;;;;;6039962;23;95673;-71
2022/12/02 02:11:18;;;;;;;27.00;13.75;;;4.70;99.90;;;;;;6065674;23;92483;-71
2022/12/02 02:13:45;;;;;;;26.98;13.13;;;4.70;99.90;;;;;;6064152;23;92454;-71
2022/12/02 02:16:14;;;;;;;25.67;13.52;;;4.70;99.90;;;;;;6063833;23;95765;-71
2022/12/02 02:18:41;;;;;;;25.60;12.95;;;4.70;99.90;;;;;;6064568;23;92884;-71
2022/12/02 02:21:33;;;;;;;24.05;12.93;;;4.70;99.90;;;;;;6088507;23;94851;-71
2022/12/02 02:24:00;;;;;;;22.48;13.02;;;4.60;99.90;;;;;;6039803;23;92475;-71
2022/12/02 02:26:28;;;;;;;23.05;11.25;;;4.60;99.90;;;;;;6062383;23;98137;-71
2022/12/02 02:28:55;;;;;;;21.60;11.48;;;4.60;99.90;;;;;;6065219;23;95373;-71
2022/12/02 02:31:22;;;;;;;23.50;11.00;;;4.50;99.90;;;;;;6087863;23;92473;-71
2022/12/02 02:33:49;;;;;;;21.42;11.38;;;4.50;99.90;;;;;;6064029;23;92329;-71
2022/12/02 02:36:16;;;;;;;26.08;11.98;;;4.50;99.90;;;;;;6064117;23;94221;-71
2022/12/02 02:38:43;;;;;;;25.27;12.30;;;4.40;99.90;;;;;;6088388;23;95545;-71
2022/12/02 02:41:11;;;;;;;23.98;12.07;;;4.40;99.90;;;;;;6064042;23;92456;-71
2022/12/02 02:43:38;;;;;;;26.38;12.93;;;4.50;99.90;;;;;;6088950;23;91673;-71
2022/12/02 02:46:07;;;;;;;28.50;12.27;;;4.40;99.90;;;;;;6087905;23;95468;-71
2022/12/02 02:48:38;;;;;;;35.78;15.13;;;4.40;99.90;;;;;;6064712;23;95486;-71
2022/12/02 02:51:06;;;;;;;31.70;13.93;;;4.50;99.90;;;;;;6086522;23;94817;-71
2022/12/02 02:53:34;;;;;;;33.10;15.38;;;4.50;99.90;;;;;;6088206;23;92466;-71
2022/12/02 02:56:03;;;;;;;34.28;14.85;;;4.40;99.90;;;;;;6087833;23;95918;-71
2022/12/02 02:58:33;;;;;;;35.78;17.27;;;4.40;99.90;;;;;;6063461;23;95365;-71
2022/12/02 03:01:13;;;;;;;35.88;16.80;;;4.30;99.90;;;;;;6087931;23;92312;-71
2022/12/02 03:03:53;;;;;;;42.45;17.83;;;4.30;99.90;;;;;;6064048;23;92493;-71
2022/12/02 03:06:23;;;;;;;41.05;19.52;;;4.30;99.90;;;;;;6088296;23;95501;-71
2022/12/02 03:08:51;;;;;;;37.83;17.90;;;4.30;99.90;;;;;;6063919;23;95505;-71
2022/12/02 03:11:18;;;;;;;40.50;17.70;;;4.30;99.90;;;;;;6088151;23;92598;-71
2022/12/02 03:13:47;;;;;;;40.92;18.27;;;4.30;99.90;;;;;;6064008;23;92551;-71
2022/12/02 03:16:17;;;;;;;40.72;17.55;;;4.30;99.90;;;;;;6062138;23;95432;-71
2022/12/02 03:18:46;;;;;;;40.70;17.77;;;4.30;99.90;;;;;;6065472;23;95309;-71
2022/12/02 03:21:15;;;;;;;40.10;18.45;;;4.20;99.90;;;;;;6063807;23;92340;-71
2022/12/02 03:23:44;;;;;;;37.28;18.20;;;4.20;99.90;;;;;;6088324;23;92464;-71
2022/12/02 03:26:13;;;;;;;40.67;19.00;;;4.20;99.90;;;;;;6087619;23;95747;-71
2022/12/02 03:28:41;;;;;;;42.60;18.63;;;4.20;99.90;;;;;;6063512;23;93131;-71
2022/12/02 03:31:09;;;;;;;36.17;17.55;;;4.20;99.90;;;;;;6087662;23;92922;-71
2022/12/02 03:33:37;;;;;;;36.58;16.48;;;4.20;99.90;;;;;;6064281;23;91663;-71
2022/12/02 03:36:05;;;;;;;39.67;17.42;;;4.20;99.90;;;;;;6064279;23;105143;-71
2022/12/02 03:38:32;;;;;;;35.67;15.73;;;4.20;99.90;;;;;;6039135;23;93986;-71
2022/12/02 03:41:01;;;;;;;41.53;17.83;;;4.20;99.90;;;;;;6062011;23;94881;-71
2022/12/02 03:43:28;;;;;;;35.40;16.77;;;4.20;99.90;;;;;;6087909;23;92416;-71
2022/12/02 03:45:56;;;;;;;34.80;16.52;;;4.20;99.90;;;;;;6087170;23;95794;-71
2022/12/02 03:48:24;;;;;;;35.17;17.27;;;4.20;99.90;;;;;;6063278;23;95708;-72
2022/12/02 03:50:52;;;;;;;37.33;17.42;;;4.20;99.90;;;;;;6065169;23;92324;-71
2022/12/02 03:53:20;;;;;;;39.25;17.13;;;4.20;99.90;;;;;;6065166;23;92388;-71
2022/12/02 03:55:48;;;;;;;37.13;18.08;;;4.20;99.90;;;;;;6064861;23;93087;-71
2022/12/02 03:58:15;;;;;;;37.15;16.67;;;4.20;99.90;;;;;;6065077;23;93052;-71
2022/12/02 04:00:42;;;;;;;35.65;16.98;;;4.10;99.90;;;;;;6063501;23;92361;-71
2022/12/02 04:03:09;;;;;;;41.13;17.23;;;4.10;99.90;;;;;;6064383;23;101191;-71
2022/12/02 04:05:36;;;;;;;35.60;17.58;;;4.10;99.90;;;;;;6087551;23;95414;-72
2022/12/02 04:08:03;;;;;;;37.67;18.10;;;4.10;99.90;;;;;;6065690;23;95507;-71
2022/12/02 04:10:29;;;;;;;35.30;16.67;;;4.10;99.90;;;;;;6066360;23;92368;-71
2022/12/02 04:12:56;;;;;;;42.55;17.27;;;4.10;99.90;;;;;;6089096;23;92514;-71
2022/12/02 04:15:23;;;;;;;43.78;18.00;;;4.10;99.90;;;;;;6066171;23;93141;-71
2022/12/02 04:17:50;;;;;;;43.92;17.50;;;4.10;99.90;;;;;;6066127;23;92784;-71
2022/12/02 04:20:17;;;;;;;42.42;19.00;;;4.10;99.90;;;;;;6088853;23;92488;-71
2022/12/02 04:22:44;;;;;;;37.17;17.40;;;4.10;99.90;;;;;;6065373;23;92069;-71
2022/12/02 04:25:11;;;;;;;42.72;16.48;;;4.10;99.90;;;;;;6065805;23;93083;-71
2022/12/02 04:27:38;;;;;;;41.17;17.50;;;4.10;99.90;;;;;;6065657;23;100935;-71
2022/12/02 04:30:06;;;;;;;40.92;19.02;;;4.00;99.90;;;;;;6062634;23;94876;-71
2022/12/02 04:32:32;;;;;;;44.50;18.67;;;4.00;99.90;;;;;;6066305;23;92389;-71
2022/12/02 04:34:59;;;;;;;44.33;19.08;;;4.00;99.90;;;;;;6064274;23;92511;-71
2022/12/02 04:37:26;;;;;;;47.67;20.70;;;4.00;99.90;;;;;;6066040;23;92383;-71
2022/12/02 04:39:53;;;;;;;41.72;18.08;;;4.00;99.90;;;;;;6040665;23;92402;-71
2022/12/02 04:42:20;;;;;;;43.83;18.58;;;4.00;99.90;;;;;;6064616;23;92887;-71
2022/12/02 04:44:47;;;;;;;38.97;17.58;;;4.00;99.90;;;;;;6066030;23;92480;-71
2022/12/02 04:47:14;;;;;;;43.28;17.50;;;3.90;99.90;;;;;;6066115;23;92840;-71
2022/12/02 04:49:41;;;;;;;46.22;19.38;;;3.90;99.90;;;;;;6066192;23;92356;-71
2022/12/02 04:52:08;;;;;;;42.85;18.02;;;3.90;99.90;;;;;;6064437;23;92936;-71
2022/12/02 04:54:35;;;;;;;41.03;18.17;;;3.90;99.90;;;;;;6062970;23;95638;-71
2022/12/02 04:57:02;;;;;;;44.83;17.67;;;3.90;99.90;;;;;;6065855;23;95288;-71
2022/12/02 04:59:29;;;;;;;47.03;19.02;;;3.80;99.90;;;;;;6088924;23;92409;-71
2022/12/02 05:01:56;;;;;;;40.50;18.98;;;3.80;99.90;;;;;;6066157;23;92442;-71
2022/12/02 05:04:22;;;;;;;38.25;16.52;;;3.80;99.90;;;;;;6064301;23;93129;-71
2022/12/02 05:06:49;;;;;;;37.17;14.93;;;3.70;99.90;;;;;;6064283;23;93200;-71
2022/12/02 05:09:16;;;;;;;49.92;20.42;;;3.70;99.90;;;;;;6065876;23;92632;-71
2022/12/02 05:11:43;;;;;;;46.33;19.27;;;3.70;99.90;;;;;;6066479;23;91729;-71
2022/12/02 05:14:10;;;;;;;45.08;19.65;;;3.70;99.90;;;;;;6065599;23;93080;-71
2022/12/02 05:16:37;;;;;;;51.53;20.83;;;3.70;99.90;;;;;;6065866;23;92778;-71
2022/12/02 05:19:04;;;;;;;51.05;21.75;;;3.70;99.90;;;;;;6063231;23;94894;-71
2022/12/02 05:21:31;;;;;;;43.13;19.58;;;3.70;99.90;;;;;;6088728;23;94806;-71
2022/12/02 05:23:58;;;;;;;52.42;20.85;;;3.60;99.90;;;;;;6064351;23;95632;-71
2022/12/02 05:26:25;;;;;;;47.80;20.02;;;3.60;99.90;;;;;;6088333;23;92740;-71
2022/12/02 05:28:51;;;;;;;47.38;19.52;;;3.60;99.90;;;;;;6088938;23;93020;-71
2022/12/02 05:31:18;;;;;;;45.83;18.50;;;3.60;99.90;;;;;;6064056;23;92458;-71
2022/12/02 05:33:45;;;;;;;48.05;19.73;;;3.50;99.90;;;;;;6088615;23;95702;-72
2022/12/02 05:36:13;;;;;;;47.40;20.08;;;3.60;99.90;;;;;;6066066;23;93117;-71
2022/12/02 05:38:42;;;;;;;43.25;18.27;;;3.50;99.90;;;;;;6088693;23;92576;-71
2022/12/02 05:41:08;;;;;;;47.40;21.27;;;3.60;99.90;;;;;;6065892;23;92560;-71
2022/12/02 05:43:39;;;;;;;51.55;21.40;;;3.50;99.90;;;;;;6064240;23;95739;-72
2022/12/02 05:46:20;;;;;;;52.83;21.05;;;3.60;99.90;;;;;;6065695;23;95348;-71
2022/12/02 05:48:49;;;;;;;44.53;19.92;;;3.70;99.90;;;;;;6065758;23;92421;-71
2022/12/02 05:51:19;;;;;;;49.55;20.80;;;3.70;99.90;;;;;;6063920;23;93024;-71
2022/12/02 05:53:49;;;;;;;50.65;21.13;;;3.60;99.90;;;;;;6088357;23;95621;-71
2022/12/02 05:56:19;;;;;;;52.65;20.95;;;3.70;99.90;;;;;;6088082;23;95517;-71
2022/12/02 05:58:45;;;;;;;50.45;21.25;;;3.70;99.90;;;;;;6065900;23;92284;-71
2022/12/02 06:01:30;;;;;;;45.55;19.05;;;3.80;99.90;;;;;;6066044;23;91752;-71
2022/12/02 06:03:58;;;;;;;48.75;19.42;;;3.80;99.90;;;;;;6065755;23;93272;-71
2022/12/02 06:06:29;;;;;;;43.58;19.02;;;3.80;99.90;;;;;;6088085;23;95681;-71
2022/12/02 06:08:56;;;;;;;51.33;19.60;;;3.80;99.90;;;;;;6064490;23;94730;-71
2022/12/02 06:11:33;;;;;;;45.10;20.13;;;3.80;99.90;;;;;;6065569;23;92349;-71
2022/12/02 06:14:09;;;;;;;48.33;20.20;;;3.90;99.90;;;;;;6064012;23;95174;-72
2022/12/02 06:16:36;;;;;;;51.38;21.45;;;3.90;99.90;;;;;;6065393;23;93028;-72
2022/12/02 06:19:18;;;;;;;48.70;20.35;;;3.90;99.90;;;;;;6065796;23;92324;-72
2022/12/02 06:21:45;;;;;;;44.83;18.30;;;3.90;99.90;;;;;;6065867;23;92419;-71
2022/12/02 06:24:12;;;;;;;47.67;19.55;;;3.90;99.90;;;;;;6065100;23;103658;-71
2022/12/02 06:26:39;;;;;;;53.20;19.58;;;3.90;99.90;;;;;;6065601;23;92846;-72
2022/12/02 06:29:14;;;;;;;46.58;19.70;;;3.90;99.90;;;;;;6088242;23;92355;-72
2022/12/02 06:31:42;;;;;;;50.42;19.90;;;3.90;99.90;;;;;;6088771;23;92397;-71
2022/12/02 06:34:42;;;;;;;49.13;20.05;;;3.90;99.90;;;;;;6062571;23;98054;-72
2022/12/02 06:37:32;;;;;;;39.88;15.88;;;4.00;99.90;;;;;;6065377;23;95235;-72
2022/12/02 06:39:59;;;;;;;51.92;20.20;;;4.00;99.90;;;;;;6057807;23;92455;-72
2022/12/02 06:42:47;;;;;;;51.92;21.88;;;3.90;99.90;;;;;;6023987;23;92468;-71
2022/12/02 06:45:14;;;;;;;57.15;21.67;;;3.90;99.90;;;;;;6065475;23;93207;-71
2022/12/02 06:47:41;;;;;;;53.13;20.63;;;3.90;99.90;;;;;;6063565;23;92951;-71
2022/12/02 06:50:31;;;;;;;51.03;18.98;;;4.00;99.90;;;;;;6088433;23;92424;-71
2022/12/02 06:53:10;;;;;;;48.43;19.80;;;4.00;99.90;;;;;;6066161;23;91575;-72
2022/12/02 06:55:37;;;;;;;52.22;19.90;;;4.00;99.90;;;;;;6063681;23;93239;-72
2022/12/02 06:58:22;;;;;;;51.95;20.25;;;4.00;99.90;;;;;;6063871;23;95556;-72
2022/12/02 07:00:49;;;;;;;57.45;21.40;;;3.90;99.90;;;;;;6064168;23;94756;-72
2022/12/02 07:03:30;;;;;;;50.25;19.70;;;3.90;99.90;;;;;;6065575;23;92380;-71
2022/12/02 07:06:13;;;;;;;53.15;20.90;;;3.90;99.90;;;;;;6065390;23;92879;-72
2022/12/02 07:08:40;;;;;;;59.70;23.02;;;4.00;99.90;;;;;;6065115;23;93155;-72
2022/12/02 07:11:48;;;;;;;51.08;20.73;;;4.00;99.90;;;;;;6064056;23;92396;-72
2022/12/02 07:14:18;;;;;;;61.58;22.38;;;4.00;99.90;;;;;;6065472;23;93079;-72
2022/12/02 07:16:47;;;;;;;57.85;20.38;;;4.00;99.90;;;;;;6065261;23;93814;-72
2022/12/02 07:19:18;;;;;;;52.45;21.83;;;4.00;99.90;;;;;;6065607;23;93063;-72
2022/12/02 07:21:45;;;;;;;61.78;22.60;;;4.00;99.90;;;;;;6088009;23;92447;-71
2022/12/02 07:24:20;;;;;;;55.83;22.27;;;4.10;99.90;;;;;;6088373;23;92415;-72
2022/12/02 07:26:48;;;;;;;52.22;22.17;;;4.00;99.90;;;;;;6086176;23;95674;-72
2022/12/02 07:29:29;;;;;;;54.47;22.23;;;4.10;99.90;;;;;;6064314;23;95293;-72
2022/12/02 07:31:56;;;;;;;48.00;19.88;;;4.10;99.90;;;;;;6063932;23;92384;-72
2022/12/02 07:34:23;;;;;;;48.88;20.80;;;4.10;99.90;;;;;;6065176;23;92711;-72
2022/12/02 07:36:54;;;;;;;54.22;24.13;;;4.00;99.90;;;;;;6065174;23;93282;-72
2022/12/02 07:39:21;;;;;;;50.03;20.17;;;4.10;99.90;;;;;;6065619;23;93057;-72
2022/12/02 07:41:47;;;;;;;58.22;23.92;;;4.00;99.90;;;;;;6088953;23;92450;-72
2022/12/02 07:44:14;;;;;;;51.67;20.35;;;4.00;99.90;;;;;;6064687;23;100796;-72
2022/12/02 07:46:41;;;;;;;55.17;21.10;;;4.10;99.90;;;;;;6065994;23;93245;-72
2022/12/02 07:49:08;;;;;;;52.15;20.92;;;4.10;99.90;;;;;;6066157;23;92891;-72
2022/12/02 07:51:35;;;;;;;60.78;23.45;;;4.10;99.90;;;;;;6087713;23;95162;-72
2022/12/02 07:54:03;;;;;;;51.40;20.00;;;4.10;99.90;;;;;;6089160;23;92495;-72
2022/12/02 07:56:30;;;;;;;54.83;21.73;;;4.10;99.90;;;;;;6066069;23;93556;-72
2022/12/02 07:58:57;;;;;;;48.05;21.50;;;4.10;99.90;;;;;;6066237;23;92903;-72
2022/12/02 08:01:40;;;;;;;55.60;21.17;;;4.10;99.90;;;;;;6066182;23;92375;-72
2022/12/02 08:04:08;;;;;;;57.53;22.52;;;4.10;99.90;;;;;;6066481;23;92779;-72
2022/12/02 08:06:34;;;;;;;57.72;22.77;;;4.10;99.90;;;;;;6064531;23;93142;-72
2022/12/02 08:09:06;;;;;;;53.40;22.02;;;4.10;99.90;;;;;;6066506;23;92916;-72
2022/12/02 08:11:33;;;;;;;56.67;20.85;;;4.10;99.90;;;;;;6065943;23;93044;-72
2022/12/02 08:14:00;;;;;;;60.42;22.30;;;4.00;99.90;;;;;;6066355;23;92597;-71
2022/12/02 08:16:28;;;;;;;53.30;19.35;;;4.00;99.90;;;;;;6087454;23;95550;-72
2022/12/02 08:18:55;;;;;;;53.53;21.30;;;4.10;99.90;;;;;;6065965;23;95423;-72
2022/12/02 08:21:21;;;;;;;50.80;20.05;;;4.10;99.90;;;;;;6065954;23;96388;-72
2022/12/02 08:23:48;;;;;;;58.20;21.15;;;4.10;99.90;;;;;;6064628;23;92683;-72
2022/12/02 08:26:15;;;;;;;55.55;20.33;;;4.10;99.90;;;;;;6066097;23;93102;-72
2022/12/02 08:28:42;;;;;;;47.78;20.55;;;4.10;99.90;;;;;;6088464;23;96020;-72
2022/12/02 08:31:10;;;;;;;61.53;23.30;;;4.10;99.90;;;;;;6064335;23;92492;-72
2022/12/02 08:33:37;;;;;;;52.60;21.60;;;4.20;99.90;;;;;;6066461;23;91704;-72
2022/12/02 08:36:04;;;;;;;59.53;21.40;;;4.10;99.90;;;;;;6088842;23;95772;-72
2022/12/02 08:38:31;;;;;;;50.67;20.67;;;4.10;99.90;;;;;;6066056;23;93075;-72
2022/12/02 08:40:57;;;;;;;49.95;20.27;;;4.20;99.90;;;;;;6063244;23;94887;-72
2022/12/02 08:43:24;;;;;;;54.13;21.00;;;4.30;99.90;;;;;;6089196;23;92853;-72
2022/12/02 08:45:51;;;;;;;52.42;21.20;;;4.30;99.90;;;;;;6065448;23;98414;-72
2022/12/02 08:48:18;;;;;;;49.85;20.15;;;4.30;99.90;;;;;;6065910;23;93020;-72
2022/12/02 08:50:45;;;;;;;58.13;22.92;;;4.40;99.90;;;;;;6064164;23;92313;-72
2022/12/02 08:53:12;;;;;;;52.65;18.63;;;4.40;99.90;;;;;;6066423;23;92601;-72
2022/12/02 08:55:39;;;;;;;49.42;19.00;;;4.30;99.90;;;;;;6065533;23;92880;-72
2022/12/02 08:58:06;;;;;;;55.00;20.80;;;4.30;99.90;;;;;;6066203;23;92677;-72
2022/12/02 09:00:33;;;;;;;57.45;21.48;;;4.30;99.90;;;;;;6065959;23;92316;-72
2022/12/02 09:03:05;;;;;;;63.72;23.80;;;4.30;99.90;;;;;;6064328;23;92487;-72
2022/12/02 09:05:33;;;;;;;61.30;21.50;;;4.30;99.90;;;;;;6087354;23;95665;-72
2022/12/02 09:08:00;;;;;;;63.05;23.67;;;4.30;99.90;;;;;;6065422;23;95372;-72
2022/12/02 09:10:27;;;;;;;67.72;21.83;;;4.30;99.90;;;;;;6064710;23;92389;-72
2022/12/02 09:12:54;;;;;;;69.97;25.05;;;4.30;99.90;;;;;;6087943;23;107142;-72
2022/12/02 09:15:21;;;;;;;72.47;25.77;;;4.30;99.90;;;;;;6063837;23;93198;-72
2022/12/02 09:17:49;;;;;;;77.10;26.15;;;4.30;99.90;;;;;;6064112;23;92818;-72
2022/12/02 09:20:16;;;;;;;83.78;26.85;;;4.20;99.90;;;;;;6066251;23;92649;-72
2022/12/02 09:22:47;;;;;;;75.68;25.05;;;4.20;99.90;;;;;;6040717;23;91756;-72
2022/12/02 09:25:14;;;;;;;65.68;24.10;;;4.20;99.90;;;;;;6065079;23;95654;-72
2022/12/02 09:27:42;;;;;;;59.53;22.27;;;4.10;99.90;;;;;;6088196;23;95518;-72
2022/12/02 09:30:09;;;;;;;69.78;23.80;;;4.10;99.90;;;;;;6038750;23;95462;-72
2022/12/02 09:32:36;;;;;;;63.65;24.33;;;4.20;99.90;;;;;;6063979;23;92440;-71
2022/12/02 09:35:04;;;;;;;59.97;21.30;;;4.10;99.90;;;;;;6065388;23;93323;-72
2022/12/02 09:37:31;;;;;;;63.65;24.02;;;4.10;99.90;;;;;;6065348;23;104029;-72
2022/12/02 09:39:58;;;;;;;59.78;21.55;;;4.20;99.90;;;;;;6088154;23;92437;-72
2022/12/02 09:42:26;;;;;;;56.85;21.98;;;4.20;99.90;;;;;;6065869;23;92460;-72
2022/12/02 09:44:53;;;;;;;52.70;21.65;;;4.20;99.90;;;;;;6088454;23;94136;-72
2022/12/02 09:47:22;;;;;;;57.63;22.05;;;4.30;99.90;;;;;;6064533;23;98172;-72
2022/12/02 09:49:49;;;;;;;52.30;21.65;;;4.40;99.90;;;;;;6063743;23;92980;-72
2022/12/02 09:52:23;;;;;;;53.08;20.02;;;4.40;99.90;;;;;;6064476;23;92560;-72
2022/12/02 09:54:54;;;;;;;49.60;18.15;;;4.40;99.90;;;;;;6062579;23;98165;-72
2022/12/02 09:57:28;;;;;;;52.80;21.52;;;4.50;99.90;;;;;;6064124;23;95305;-72
2022/12/02 10:00:02;;;;;;;51.75;20.25;;;4.50;99.90;;;;;;6063989;23;92400;-72
2022/12/02 10:02:41;;;;;;;50.10;19.83;;;4.60;99.90;;;;;;6063835;23;92434;-72
2022/12/02 10:05:23;;;;;;;53.47;20.25;;;4.60;99.90;;;;;;6063739;23;95786;-72
2022/12/02 10:07:52;;;;;;;49.22;19.20;;;4.60;99.90;;;;;;6065440;23;93014;-72
2022/12/02 10:10:23;;;;;;;48.15;21.33;;;4.60;99.90;;;;;;6065719;23;92533;-72
2022/12/02 10:12:50;;;;;;;53.35;22.52;;;4.70;99.90;;;;;;6064075;23;91725;-72
2022/12/02 10:15:21;;;;;;;50.50;20.27;;;4.60;99.90;;;;;;6063123;23;112157;-72
2022/12/02 10:17:48;;;;;;;53.05;23.52;;;4.60;99.90;;;;;;6065382;23;92405;-72
2022/12/02 10:20:27;;;;;;;50.85;21.75;;;4.60;99.90;;;;;;6064371;23;94717;-72
2022/12/02 10:23:10;;;;;;;53.25;22.48;;;4.70;99.90;;;;;;6065586;23;92387;-72
2022/12/02 10:25:40;;;;;;;52.78;20.83;;;4.70;99.90;;;;;;6065639;23;93253;-72
2022/12/02 10:28:20;;;;;;;52.05;20.38;;;4.60;99.90;;;;;;6065468;23;93014;-72
2022/12/02 10:30:56;;;;;;;56.33;24.60;;;4.60;99.90;;;;;;6088574;23;92343;-72
2022/12/02 10:33:28;;;;;;;60.58;24.60;;;4.50;99.90;;;;;;6064208;23;92448;-72
2022/12/02 10:35:57;;;;;;;55.83;24.48;;;4.50;99.90;;;;;;6065266;23;93374;-72
2022/12/02 10:38:42;;;;;;;54.97;22.55;;;4.40;99.90;;;;;;6064745;23;93006;-72
2022/12/02 10:41:17;;;;;;;53.83;23.38;;;4.40;99.90;;;;;;6065397;23;92462;-72
2022/12/02 10:44:00;;;;;;;62.80;24.27;;;4.50;99.90;;;;;;6065230;23;92577;-72
2022/12/02 10:46:28;;;;;;;64.68;26.17;;;4.50;99.90;;;;;;6064122;23;95578;-72
2022/12/02 10:48:55;;;;;;;61.58;25.77;;;4.50;99.90;;;;;;6064950;23;95168;-72
2022/12/02 10:51:22;;;;;;;57.58;23.27;;;4.40;99.90;;;;;;6065585;23;92423;-72
2022/12/02 10:53:55;;;;;;;59.35;25.00;;;4.40;99.90;;;;;;6064098;23;92431;-72
2022/12/02 10:56:23;;;;;;;67.13;28.88;;;4.40;99.90;;;;;;6065473;23;93171;-72
2022/12/02 10:58:51;;;;;;;57.15;25.05;;;4.30;99.90;;;;;;6065442;23;93049;-72
2022/12/02 11:01:21;;;;;;;64.72;26.38;;;4.40;99.90;;;;;;6088319;23;92370;-72
2022/12/02 11:03:48;;;;;;;70.28;28.40;;;4.40;99.90;;;;;;6066132;23;91815;-71
2022/12/02 11:06:19;;;;;;;56.85;24.45;;;4.40;99.90;;;;;;6065073;23;93280;-72
2022/12/02 11:08:48;;;;;;;63.00;24.70;;;4.30;99.90;;;;;;6063586;23;95665;-72
2022/12/02 11:11:24;;;;;;;62.58;29.33;;;4.30;99.90;;;;;;6086452;23;95320;-72
2022/12/02 11:13:51;;;;;;;53.60;23.88;;;4.30;99.90;;;;;;6065499;23;92849;-71
2022/12/02 11:16:26;;;;;;;67.95;28.00;;;4.20;99.90;;;;;;6064804;23;92308;-72
2022/12/02 11:19:22;;;;;;;68.20;27.55;;;4.30;99.90;;;;;;6063730;23;93084;-72
2022/12/02 11:21:49;;;;;;;63.30;24.58;;;4.30;99.90;;;;;;6065407;23;92424;-72
2022/12/02 11:24:22;;;;;;;63.28;26.80;;;4.20;99.90;;;;;;6087931;23;92489;-72
2022/12/02 11:26:58;;;;;;;66.07;27.73;;;4.30;99.90;;;;;;6065043;23;93101;-72
2022/12/02 11:29:26;;;;;;;64.45;29.30;;;4.40;99.90;;;;;;6063531;23;92698;-72
2022/12/02 11:32:21;;;;;;;66.05;29.38;;;4.30;99.90;;;;;;6065349;23;92438;-72
2022/12/02 11:34:51;;;;;;;68.10;28.48;;;4.30;99.90;;;;;;6065316;23;92383;-72
2022/12/02 11:37:40;;;;;;;72.47;29.67;;;4.30;99.90;;;;;;6063500;23;95499;-72
2022/12/02 11:40:12;;;;;;;59.13;26.10;;;4.20;99.90;;;;;;6064608;23;96335;-72
2022/12/02 11:42:42;;;;;;;64.88;25.70;;;4.20;99.90;;;;;;6065363;23;92854;-72
2022/12/02 11:45:49;;;;;;;64.65;26.35;;;4.10;99.90;;;;;;6064871;23;92346;-72
2022/12/02 11:48:16;;;;;;;63.22;27.60;;;4.20;99.90;;;;;;6033239;23;95777;-72
2022/12/02 11:50:43;;;;;;;65.72;28.55;;;4.20;99.90;;;;;;6064818;23;92946;-72
2022/12/02 11:53:15;;;;;;;59.28;25.15;;;4.20;99.90;;;;;;6064760;23;92464;-72
2022/12/02 11:55:45;;;;;;;63.53;26.83;;;4.30;99.90;;;;;;6064021;23;91626;-72
2022/12/02 11:58:31;;;;;;;63.35;27.70;;;4.30;99.90;;;;;;6064592;23;93425;-72
2022/12/02 12:01:06;;;;;;;58.15;26.40;;;4.40;99.90;;;;;;6087892;23;95506;-72
2022/12/02 12:03:33;;;;;;;56.67;23.42;;;4.40;99.90;;;;;;6062129;23;94928;-72
2022/12/02 12:06:15;;;;;;;55.78;25.23;;;4.30;99.90;;;;;;6063464;23;92455;-72
2022/12/02 12:08:45;;;;;;;57.65;26.02;;;4.40;99.90;;;;;;6062964;23;95798;-72
2022/12/02 12:11:36;;;;;;;65.38;30.95;;;4.30;99.90;;;;;;6087048;23;94321;-72
2022/12/02 12:14:10;;;;;;;58.30;28.15;;;4.30;99.90;;;;;;6063074;23;92471;-72
2022/12/02 12:16:46;;;;;;;62.10;28.98;;;4.40;99.90;;;;;;6064887;23;92441;-72
2022/12/02 12:19:16;;;;;;;59.58;27.88;;;4.40;99.90;;;;;;6087260;23;93057;-72
2022/12/02 12:21:54;;;;;;;61.92;29.10;;;4.40;99.90;;;;;;6065134;23;92994;-72
2022/12/02 12:24:22;;;;;;;57.33;25.08;;;4.50;99.90;;;;;;6087746;23;92462;-72
2022/12/02 12:26:53;;;;;;;55.80;25.38;;;4.50;99.90;;;;;;6066325;23;92392;-72
2022/12/02 12:29:26;;;;;;;50.70;23.85;;;4.50;99.90;;;;;;6083378;23;96685;-71
2022/12/02 12:31:53;;;;;;;54.07;27.93;;;4.50;99.90;;;;;;6066054;23;95306;-72
2022/12/02 12:34:20;;;;;;;55.28;25.45;;;4.40;99.90;;;;;;6066166;23;92781;-72
2022/12/02 12:36:48;;;;;;;58.60;27.75;;;4.40;99.90;;;;;;6088302;23;102395;-72
2022/12/02 12:39:16;;;;;;;52.35;25.92;;;4.50;99.90;;;;;;6063979;23;96250;-72
2022/12/02 12:41:43;;;;;;;55.33;31.00;;;4.50;99.90;;;;;;6066019;23;93047;-72
2022/12/02 12:44:25;;;;;;;50.78;24.58;;;4.60;99.90;;;;;;6066120;23;92449;-72
2022/12/02 12:46:58;;;;;;;54.25;26.45;;;4.40;99.90;;;;;;6088920;23;91729;-72
2022/12/02 12:49:26;;;;;;;54.13;25.63;;;4.40;99.90;;;;;;6065652;23;93353;-72
2022/12/02 12:51:53;;;;;;;57.28;26.52;;;4.40;99.90;;;;;;6065985;23;92375;-72
2022/12/02 12:54:20;;;;;;;56.30;26.80;;;4.50;99.90;;;;;;6087099;23;94928;-72
2022/12/02 12:56:47;;;;;;;49.20;25.35;;;4.50;99.90;;;;;;6066313;23;92895;-72
2022/12/02 12:59:14;;;;;;;50.08;26.33;;;4.60;99.90;;;;;;6039983;23;92507;-72